createdAt,value
2023-03-19T00:00:29.040Z,8.77
2023-03-19T00:02:56.310Z,9.52
2023-03-19T00:05:23.269Z,8.93
2023-03-19T00:07:52.950Z,10.10
2023-03-19T00:10:19.719Z,9.93
2023-03-19T00:12:46.650Z,10.63
2023-03-19T00:15:16.141Z,12.35
2023-03-19T00:17:43.372Z,8.90
2023-03-19T00:20:11.939Z,9.73
2023-03-19T00:22:39.795Z,9.77
2023-03-19T00:25:08.298Z,13.77
2023-03-19T00:27:35.769Z,10.65
2023-03-19T00:30:02.700Z,12.27
2023-03-19T00:32:30.171Z,12.25
2023-03-19T00:34:57.150Z,12.27
2023-03-19T00:37:23.866Z,12.18
2023-03-19T00:39:50.649Z,11.27
2023-03-19T00:42:17.877Z,12.57
2023-03-19T00:44:44.587Z,11.75
2023-03-19T00:47:11.438Z,12.10
2023-03-19T00:49:38.298Z,13.32
2023-03-19T00:52:05.164Z,12.73
2023-03-19T00:54:32.632Z,12.15
2023-03-19T00:56:59.526Z,11.77
2023-03-19T00:59:26.474Z,12.65
2023-03-19T01:01:54.548Z,12.07
2023-03-19T01:04:21.969Z,12.10
2023-03-19T01:06:48.996Z,11.48
2023-03-19T01:09:16.067Z,12.45
2023-03-19T01:11:42.929Z,13.27
2023-03-19T01:14:09.804Z,12.35
2023-03-19T01:16:36.869Z,10.57
2023-03-19T01:19:03.934Z,9.82
2023-03-19T01:21:32.438Z,10.40
2023-03-19T01:23:59.175Z,9.82
2023-03-19T01:26:26.350Z,9.20
2023-03-19T01:28:53.225Z,9.20
2023-03-19T01:31:20.039Z,9.95
2023-03-19T01:33:47.885Z,10.25
2023-03-19T01:36:14.778Z,10.23
2023-03-19T01:38:41.502Z,10.60
2023-03-19T01:41:08.384Z,10.18
2023-03-19T01:43:35.098Z,9.85
2023-03-19T01:46:03.231Z,9.60
2023-03-19T01:48:54.854Z,10.20
2023-03-19T01:51:24.888Z,10.93
2023-03-19T01:53:56.620Z,9.48
2023-03-19T01:56:27.992Z,9.73
2023-03-19T01:59:01.969Z,9.85
2023-03-19T02:01:29.510Z,8.88
2023-03-19T02:03:56.620Z,10.23
2023-03-19T02:06:23.395Z,9.75
2023-03-19T02:08:50.366Z,9.70
2023-03-19T02:11:17.179Z,9.93
2023-03-19T02:13:43.970Z,11.73
2023-03-19T02:16:11.049Z,9.85
2023-03-19T02:18:37.905Z,11.55
2023-03-19T02:21:12.250Z,11.15
2023-03-19T02:23:47.819Z,10.55
2023-03-19T02:26:15.733Z,11.85
2023-03-19T02:28:44.163Z,9.77
2023-03-19T02:31:11.495Z,9.75
2023-03-19T02:33:38.355Z,10.02
2023-03-19T02:36:06.521Z,9.80
2023-03-19T02:38:34.029Z,9.85
2023-03-19T02:41:01.654Z,9.02
2023-03-19T02:43:29.784Z,14.38
2023-03-19T02:45:56.640Z,9.13
2023-03-19T02:48:23.810Z,9.40
2023-03-19T02:50:50.964Z,9.82
2023-03-19T02:53:17.731Z,10.27
2023-03-19T02:55:44.587Z,12.85
2023-03-19T02:58:11.444Z,10.85
2023-03-19T03:00:38.329Z,8.93
2023-03-19T03:03:06.826Z,9.25
2023-03-19T03:05:33.975Z,10.40
2023-03-19T03:08:00.828Z,9.38
2023-03-19T03:10:27.757Z,9.95
2023-03-19T03:12:54.796Z,9.55
2023-03-19T03:15:21.831Z,9.80
2023-03-19T03:17:48.790Z,9.07
2023-03-19T03:20:17.790Z,10.45
2023-03-19T03:22:44.651Z,9.55
2023-03-19T03:25:11.551Z,11.25
2023-03-19T03:27:38.462Z,10.07
2023-03-19T03:30:08.199Z,10.35
2023-03-19T03:32:38.241Z,9.68
2023-03-19T03:35:06.253Z,10.23
2023-03-19T03:37:34.314Z,9.75
2023-03-19T03:40:07.011Z,9.85
2023-03-19T03:42:34.384Z,11.23
2023-03-19T03:45:01.139Z,10.93
2023-03-19T03:47:27.942Z,12.23
2023-03-19T03:49:54.659Z,11.15
2023-03-19T03:52:21.452Z,10.05
2023-03-19T03:54:49.532Z,10.23
2023-03-19T03:57:16.300Z,10.43
2023-03-19T03:59:43.096Z,11.05
2023-03-19T04:02:10.600Z,11.40
2023-03-19T04:04:37.374Z,12.13
2023-03-19T04:07:04.422Z,12.88
2023-03-19T04:09:31.548Z,13.20
2023-03-19T04:11:58.277Z,14.00
2023-03-19T04:14:25.249Z,12.77
2023-03-19T04:16:52.329Z,12.27
2023-03-19T04:19:19.417Z,13.45
2023-03-19T04:21:46.927Z,13.40
2023-03-19T04:24:14.502Z,12.30
2023-03-19T04:26:41.299Z,12.60
2023-03-19T04:29:08.877Z,11.65
2023-03-19T04:31:35.698Z,11.77
2023-03-19T04:34:02.773Z,10.77
2023-03-19T04:36:29.579Z,10.70
2023-03-19T04:38:57.136Z,11.48
2023-03-19T04:41:24.026Z,11.93
2023-03-19T04:43:50.904Z,11.13
2023-03-19T04:46:17.769Z,11.75
2023-03-19T04:48:45.646Z,12.52
2023-03-19T04:51:12.405Z,11.75
2023-03-19T04:53:40.127Z,10.95
2023-03-19T04:56:08.074Z,11.18
2023-03-19T04:58:35.108Z,10.65
2023-03-19T05:01:02.336Z,10.85
2023-03-19T05:03:31.314Z,11.63
2023-03-19T05:05:58.229Z,11.63
2023-03-19T05:08:25.163Z,11.25
2023-03-19T05:10:51.937Z,11.68
2023-03-19T05:13:21.411Z,11.98
2023-03-19T05:15:48.749Z,11.27
2023-03-19T05:18:15.545Z,11.50
2023-03-19T05:20:42.838Z,11.80
2023-03-19T05:23:09.720Z,12.40
2023-03-19T05:25:36.444Z,11.95
2023-03-19T05:28:04.187Z,12.20
2023-03-19T05:30:31.959Z,11.35
2023-03-19T05:32:59.831Z,11.30
2023-03-19T05:35:27.830Z,12.73
2023-03-19T05:37:54.761Z,12.13
2023-03-19T05:40:22.311Z,11.23
2023-03-19T05:42:49.184Z,12.13
2023-03-19T05:45:17.598Z,11.02
2023-03-19T05:47:45.049Z,13.27
2023-03-19T05:50:12.390Z,10.98
2023-03-19T05:52:39.246Z,11.47
2023-03-19T05:55:06.923Z,11.57
2023-03-19T05:57:33.634Z,11.80
2023-03-19T06:00:00.371Z,10.50
2023-03-19T06:02:27.376Z,10.18
2023-03-19T06:04:54.227Z,10.32
2023-03-19T06:07:21.192Z,10.90
2023-03-19T06:09:48.015Z,10.75
2023-03-19T06:12:14.843Z,10.77
2023-03-19T06:14:41.664Z,9.98
2023-03-19T06:17:09.633Z,11.20
2023-03-19T06:19:36.493Z,11.55
2023-03-19T06:22:03.257Z,10.43
2023-03-19T06:24:30.892Z,11.82
2023-03-19T06:26:57.799Z,12.73
2023-03-19T06:29:24.630Z,11.77
2023-03-19T06:31:51.713Z,11.27
2023-03-19T06:34:18.900Z,11.50
2023-03-19T06:36:45.812Z,11.80
2023-03-19T06:39:13.122Z,12.83
2023-03-19T06:41:40.084Z,11.65
2023-03-19T06:44:06.999Z,11.70
2023-03-19T06:46:33.807Z,10.30
2023-03-19T06:49:00.950Z,10.00
2023-03-19T06:51:28.009Z,10.82
2023-03-19T06:53:55.165Z,10.27
2023-03-19T06:56:22.139Z,12.18
2023-03-19T06:58:48.918Z,11.55
2023-03-19T07:01:16.831Z,16.77
2023-03-19T07:03:43.771Z,11.32
2023-03-19T07:06:10.621Z,12.07
2023-03-19T07:08:37.432Z,12.30
2023-03-19T07:11:05.664Z,11.10
2023-03-19T07:13:33.277Z,11.57
2023-03-19T07:16:00.554Z,12.10
2023-03-19T07:18:27.368Z,11.57
2023-03-19T07:20:54.166Z,12.43
2023-03-19T07:23:20.996Z,12.02
2023-03-19T07:25:47.852Z,15.68
2023-03-19T07:28:14.821Z,11.73
2023-03-19T07:30:41.674Z,10.90
2023-03-19T07:33:08.606Z,10.32
2023-03-19T07:35:35.575Z,9.85
2023-03-19T07:38:02.990Z,11.38
2023-03-19T07:40:29.858Z,11.48
2023-03-19T07:42:56.599Z,10.80
2023-03-19T07:45:23.520Z,10.18
2023-03-19T07:47:51.671Z,13.85
2023-03-19T07:50:18.616Z,10.73
2023-03-19T07:52:49.342Z,10.50
2023-03-19T07:55:16.183Z,11.95
2023-03-19T07:57:43.027Z,11.00
2023-03-19T08:00:10.881Z,8.63
2023-03-19T08:02:37.628Z,9.60
2023-03-19T08:05:04.924Z,10.77
2023-03-19T08:07:32.235Z,8.80
2023-03-19T08:09:58.985Z,9.70
2023-03-19T08:12:26.170Z,8.60
2023-03-19T08:14:53.052Z,9.07
2023-03-19T08:17:19.886Z,7.10
2023-03-19T08:19:47.081Z,7.40
2023-03-19T08:22:13.968Z,9.00
2023-03-19T08:24:40.970Z,7.85
2023-03-19T08:27:08.226Z,7.30
2023-03-19T08:29:35.242Z,7.13
2023-03-19T08:32:02.072Z,6.97
2023-03-19T08:34:28.915Z,10.20
2023-03-19T08:36:55.955Z,9.27
2023-03-19T08:39:22.694Z,11.13
2023-03-19T08:41:49.466Z,9.03
2023-03-19T08:44:16.536Z,9.80
2023-03-19T08:46:43.331Z,9.43
2023-03-19T08:49:10.102Z,10.07
2023-03-19T08:51:36.959Z,9.83
2023-03-19T08:54:03.814Z,12.43
2023-03-19T08:56:30.596Z,11.67
2023-03-19T08:58:57.741Z,11.57
2023-03-19T09:01:24.601Z,9.93
2023-03-19T09:03:51.369Z,10.32
2023-03-19T09:06:18.246Z,10.30
2023-03-19T09:08:45.052Z,9.80
2023-03-19T09:11:11.900Z,9.02
2023-03-19T09:13:39.013Z,6.88
2023-03-19T09:16:06.781Z,8.93
2023-03-19T09:18:34.204Z,9.57
2023-03-19T09:21:01.262Z,9.25
2023-03-19T09:23:28.054Z,8.85
2023-03-19T09:25:54.791Z,7.68
2023-03-19T09:28:22.824Z,9.57
2023-03-19T09:30:50.060Z,7.65
2023-03-19T09:33:17.331Z,8.45
2023-03-19T09:35:44.282Z,8.85
2023-03-19T09:38:11.127Z,8.43
2023-03-19T09:41:10.992Z,8.43
2023-03-19T09:43:54.483Z,8.20
2023-03-19T09:46:23.942Z,8.23
2023-03-19T09:49:04.051Z,7.80
2023-03-19T09:51:36.478Z,7.20
2023-03-19T09:54:18.340Z,7.63
2023-03-19T09:56:45.182Z,8.20
2023-03-19T09:59:12.078Z,7.00
2023-03-19T10:01:39.196Z,8.43
2023-03-19T10:04:24.820Z,8.20
2023-03-19T10:06:52.135Z,8.32
2023-03-19T10:09:21.871Z,11.88
2023-03-19T10:12:09.958Z,9.32
2023-03-19T10:14:55.280Z,8.68
2023-03-19T10:17:27.880Z,9.68
2023-03-19T10:20:01.640Z,8.07
2023-03-19T10:22:36.895Z,9.43
2023-03-19T10:25:05.022Z,8.95
2023-03-19T10:27:31.729Z,9.15
2023-03-19T10:29:58.589Z,8.77
2023-03-19T10:32:38.689Z,10.27
2023-03-19T10:35:10.130Z,10.60
2023-03-19T10:37:38.142Z,9.18
2023-03-19T10:40:11.875Z,10.75
2023-03-19T10:43:18.352Z,13.27
2023-03-19T10:45:45.378Z,10.93
2023-03-19T10:48:18.784Z,8.95
2023-03-19T10:50:58.347Z,8.77
2023-03-19T10:53:35.169Z,9.60
2023-03-19T10:56:07.742Z,9.15
2023-03-19T10:58:35.956Z,10.93
2023-03-19T11:01:10.000Z,12.05
2023-03-19T11:03:53.323Z,9.93
2023-03-19T11:06:28.263Z,9.20
2023-03-19T11:09:10.829Z,11.25
2023-03-19T11:11:50.692Z,9.20
2023-03-19T11:14:22.606Z,8.55
2023-03-19T11:17:08.712Z,8.30
2023-03-19T11:19:42.313Z,8.80
2023-03-19T11:22:38.686Z,9.98
2023-03-19T11:25:38.964Z,9.73
2023-03-19T11:28:26.314Z,9.05
2023-03-19T11:30:59.355Z,9.88
2023-03-19T11:33:27.207Z,8.77
2023-03-19T11:36:14.132Z,10.60
2023-03-19T11:39:11.866Z,9.05
2023-03-19T11:41:58.777Z,10.48
2023-03-19T11:44:42.459Z,9.65
2023-03-19T11:47:33.091Z,9.80
2023-03-19T11:50:18.786Z,9.40
2023-03-19T11:53:00.660Z,9.02
2023-03-19T11:55:34.053Z,10.07
2023-03-19T11:58:16.263Z,9.77
2023-03-19T12:00:57.463Z,8.63
2023-03-19T12:03:59.275Z,10.45
2023-03-19T12:06:41.506Z,10.73
2023-03-19T12:09:37.396Z,8.95
2023-03-19T12:12:07.304Z,9.85
2023-03-19T12:14:49.831Z,11.02
2023-03-19T12:17:35.004Z,8.95
2023-03-19T12:20:12.205Z,24.95
2023-03-19T12:22:57.048Z,8.52
2023-03-19T12:25:48.108Z,11.40
2023-03-19T12:28:24.357Z,7.88
2023-03-19T12:31:26.469Z,8.70
2023-03-19T12:34:34.057Z,9.02
2023-03-19T12:37:21.606Z,8.32
2023-03-19T12:40:15.059Z,8.38
2023-03-19T12:42:42.285Z,10.35
2023-03-19T12:45:24.640Z,9.10
2023-03-19T12:47:51.580Z,8.38
2023-03-19T12:50:18.470Z,13.13
2023-03-19T12:52:49.683Z,9.20
2023-03-19T12:55:19.433Z,9.40
2023-03-19T12:57:52.029Z,9.95
2023-03-19T13:00:27.421Z,9.68
2023-03-19T13:03:07.654Z,8.68
2023-03-19T13:05:46.384Z,10.40
2023-03-19T13:08:40.190Z,9.77
2023-03-19T13:11:18.936Z,9.55
2023-03-19T13:13:49.958Z,9.00
2023-03-19T13:16:34.496Z,8.65
2023-03-19T13:19:18.366Z,8.50
2023-03-19T13:21:45.207Z,9.57
2023-03-19T13:24:21.993Z,9.02
2023-03-19T13:26:53.230Z,8.98
2023-03-19T13:29:32.979Z,9.35
2023-03-19T13:32:04.935Z,10.98
2023-03-19T13:34:33.366Z,11.25
2023-03-19T13:37:16.555Z,10.60
2023-03-19T13:39:43.427Z,11.32
2023-03-19T13:42:20.268Z,10.00
2023-03-19T13:44:50.557Z,12.10
2023-03-19T13:47:29.386Z,10.68
2023-03-19T13:50:22.410Z,9.80
2023-03-19T13:52:51.083Z,10.15
2023-03-19T13:55:44.938Z,10.38
2023-03-19T13:58:28.983Z,10.82
2023-03-19T14:00:58.511Z,9.68
2023-03-19T14:03:26.723Z,10.55
2023-03-19T14:05:55.244Z,10.45
2023-03-19T14:08:47.792Z,9.83
2023-03-19T14:11:25.344Z,10.40
2023-03-19T14:13:52.743Z,9.60
2023-03-19T14:16:26.998Z,9.98
2023-03-19T14:18:57.759Z,9.88
2023-03-19T14:21:46.648Z,9.30
2023-03-19T14:24:55.362Z,9.40
2023-03-19T14:27:33.744Z,10.00
2023-03-19T14:30:03.114Z,9.57
2023-03-19T14:32:35.894Z,11.27
2023-03-19T14:35:05.182Z,9.73
2023-03-19T14:37:38.052Z,8.93
2023-03-19T14:40:17.261Z,9.05
2023-03-19T14:42:47.218Z,9.95
2023-03-19T14:45:14.589Z,9.23
2023-03-19T14:47:46.503Z,11.63
2023-03-19T14:50:13.334Z,10.27
2023-03-19T14:53:12.171Z,9.75
2023-03-19T14:55:39.032Z,9.13
2023-03-19T14:58:05.741Z,10.35
2023-03-19T15:00:46.954Z,9.23
2023-03-19T15:03:37.394Z,9.35
2023-03-19T15:06:05.544Z,9.57
2023-03-19T15:08:33.374Z,9.18
2023-03-19T15:11:16.376Z,9.38
2023-03-19T15:14:24.683Z,8.63
2023-03-19T15:17:07.025Z,9.20
2023-03-19T15:19:33.890Z,8.73
2023-03-19T15:22:16.172Z,8.95
2023-03-19T15:24:43.146Z,9.73
2023-03-19T15:27:26.651Z,9.30
2023-03-19T15:29:53.768Z,8.90
2023-03-19T15:32:56.365Z,9.10
2023-03-19T15:36:12.153Z,7.75
2023-03-19T15:38:42.346Z,7.85
2023-03-19T15:41:09.165Z,7.95
2023-03-19T15:43:37.109Z,8.95
2023-03-19T15:46:04.119Z,8.32
2023-03-19T15:48:44.020Z,8.77
2023-03-19T15:51:11.293Z,7.45
2023-03-19T15:53:38.620Z,8.27
2023-03-19T15:56:05.761Z,9.05
2023-03-19T15:58:37.220Z,8.15
2023-03-19T16:01:06.193Z,7.93
2023-03-19T16:03:38.317Z,7.53
2023-03-19T16:06:14.441Z,10.70
2023-03-19T16:08:53.595Z,7.38
2023-03-19T16:11:27.966Z,7.88
2023-03-19T16:14:27.227Z,7.43
2023-03-19T16:17:01.097Z,7.78
2023-03-19T16:19:36.551Z,7.68
2023-03-19T16:22:11.960Z,7.88
2023-03-19T16:24:43.083Z,8.57
2023-03-19T16:27:14.539Z,7.40
2023-03-19T16:29:42.624Z,9.38
2023-03-19T16:32:14.534Z,11.10
2023-03-19T16:35:05.209Z,10.20
2023-03-19T16:37:43.398Z,7.93
2023-03-19T16:40:13.396Z,9.02
2023-03-19T16:43:14.582Z,8.57
2023-03-19T16:45:42.643Z,9.23
2023-03-19T16:48:09.504Z,8.15
2023-03-19T16:50:41.251Z,8.75
2023-03-19T16:53:27.931Z,11.05
2023-03-19T16:55:55.435Z,10.48
2023-03-19T16:58:31.972Z,8.35
2023-03-19T17:00:59.252Z,8.20
2023-03-19T17:03:26.288Z,7.40
2023-03-19T17:05:53.032Z,10.50
2023-03-19T17:08:22.015Z,8.27
2023-03-19T17:10:52.385Z,8.10
2023-03-19T17:13:21.885Z,8.20
2023-03-19T17:15:49.178Z,7.88
2023-03-19T17:18:23.755Z,8.00
2023-03-19T17:20:56.014Z,7.22
2023-03-19T17:23:27.014Z,8.05
2023-03-19T17:25:54.272Z,6.25
2023-03-19T17:28:21.341Z,5.20
2023-03-19T17:30:48.168Z,5.90
2023-03-19T17:33:20.734Z,7.90
2023-03-19T17:35:47.527Z,5.78
2023-03-19T17:38:15.676Z,6.32
2023-03-19T17:40:42.489Z,6.38
2023-03-19T17:43:10.430Z,5.85
2023-03-19T17:45:37.229Z,6.25
2023-03-19T17:48:04.138Z,5.53
2023-03-19T17:50:31.580Z,6.95
2023-03-19T17:52:58.573Z,8.68
2023-03-19T17:55:27.089Z,6.57
2023-03-19T17:57:54.029Z,6.35
2023-03-19T18:00:22.475Z,8.63
2023-03-19T18:02:50.182Z,7.22
2023-03-19T18:05:26.423Z,9.90
2023-03-19T18:07:56.775Z,7.28
2023-03-19T18:10:29.789Z,7.03
2023-03-19T18:13:00.131Z,9.15
2023-03-19T18:15:27.721Z,6.95
2023-03-19T18:17:56.291Z,7.20
2023-03-19T18:20:25.396Z,8.43
2023-03-19T18:22:52.199Z,10.40
2023-03-19T18:25:23.752Z,10.63
2023-03-19T18:27:51.408Z,6.95
2023-03-19T18:30:19.746Z,6.90
2023-03-19T18:32:47.934Z,7.00
2023-03-19T18:35:18.723Z,7.05
2023-03-19T18:37:46.588Z,6.55
2023-03-19T18:40:19.592Z,6.18
2023-03-19T18:42:47.167Z,9.18
2023-03-19T18:45:14.191Z,7.47
2023-03-19T18:47:41.689Z,7.45
2023-03-19T18:50:29.592Z,6.90
2023-03-19T18:52:56.745Z,8.70
2023-03-19T18:55:27.126Z,6.80
2023-03-19T18:57:55.337Z,6.20
2023-03-19T19:00:27.764Z,6.53
2023-03-19T19:02:54.798Z,6.47
2023-03-19T19:05:23.830Z,6.50
2023-03-19T19:07:51.401Z,7.68
2023-03-19T19:10:18.295Z,6.18
2023-03-19T19:12:46.455Z,7.00
2023-03-19T19:15:33.540Z,6.57
2023-03-19T19:18:00.852Z,6.32
2023-03-19T19:20:28.843Z,6.10
2023-03-19T19:22:56.018Z,6.10
2023-03-19T19:25:24.514Z,7.93
2023-03-19T19:28:05.843Z,6.28
2023-03-19T19:30:32.718Z,9.40
2023-03-19T19:32:59.753Z,6.78
2023-03-19T19:35:27.791Z,6.75
2023-03-19T19:37:55.623Z,9.23
2023-03-19T19:40:25.580Z,6.72
2023-03-19T19:42:52.514Z,9.07
2023-03-19T19:45:28.199Z,8.45
2023-03-19T19:47:55.075Z,7.13
2023-03-19T19:50:25.406Z,6.38
2023-03-19T19:52:52.919Z,6.78
2023-03-19T19:55:19.828Z,9.02
2023-03-19T19:57:47.935Z,6.13
2023-03-19T20:00:29.992Z,6.95
2023-03-19T20:02:57.759Z,7.03
2023-03-19T20:05:26.174Z,9.70
2023-03-19T20:07:55.345Z,6.50
2023-03-19T20:10:23.338Z,7.78
2023-03-19T20:12:54.914Z,8.07
2023-03-19T20:15:29.674Z,11.10
2023-03-19T20:17:56.686Z,13.32
2023-03-19T20:20:23.640Z,10.40
2023-03-19T20:22:51.171Z,10.93
2023-03-19T20:25:19.264Z,6.43
2023-03-19T20:27:46.618Z,6.88
2023-03-19T20:30:45.082Z,7.68
2023-03-19T20:33:12.797Z,7.38
2023-03-19T20:35:39.595Z,8.05
2023-03-19T20:38:06.946Z,7.32
2023-03-19T20:40:43.424Z,10.10
2023-03-19T20:43:28.516Z,6.57
2023-03-19T20:45:58.889Z,7.03
2023-03-19T20:48:25.900Z,6.97
2023-03-19T20:50:52.882Z,7.32
2023-03-19T20:53:19.690Z,7.60
2023-03-19T20:55:47.973Z,7.22
2023-03-19T20:58:27.724Z,9.20
2023-03-19T21:03:22.739Z,7.32
2023-03-19T21:05:55.641Z,8.02
2023-03-19T21:08:43.576Z,12.48
2023-03-19T21:11:21.367Z,9.00
2023-03-19T21:13:49.694Z,8.35
2023-03-19T21:16:25.517Z,9.98
2023-03-19T21:18:54.024Z,10.48
2023-03-19T21:21:29.948Z,8.50
2023-03-19T21:24:08.127Z,8.63
2023-03-19T21:26:38.762Z,9.15
2023-03-19T21:29:07.408Z,9.15
2023-03-19T21:31:34.501Z,10.55
2023-03-19T21:34:01.775Z,9.32
2023-03-19T21:36:29.114Z,9.52
2023-03-19T21:38:56.497Z,8.98
2023-03-19T21:41:28.527Z,8.57
2023-03-19T21:44:10.145Z,8.95
2023-03-19T21:46:37.134Z,8.65
2023-03-19T21:49:04.029Z,8.75
2023-03-19T21:51:30.880Z,8.18
2023-03-19T21:53:58.728Z,8.90
2023-03-19T21:56:32.724Z,7.72
2023-03-19T21:59:04.645Z,8.25
2023-03-19T22:01:31.400Z,12.13
2023-03-19T22:03:58.413Z,13.85
2023-03-19T22:06:25.699Z,13.38
2023-03-19T22:08:54.268Z,12.98
2023-03-19T22:11:28.859Z,10.48
2023-03-19T22:13:59.600Z,10.70
2023-03-19T22:16:26.368Z,9.70
2023-03-19T22:18:53.291Z,11.52
2023-03-19T22:21:21.897Z,11.20
2023-03-19T22:23:49.001Z,10.95
2023-03-19T22:26:31.636Z,11.50
2023-03-19T22:29:00.025Z,11.32
2023-03-19T22:31:26.804Z,10.75
2023-03-19T22:33:53.675Z,10.93
2023-03-19T22:36:20.452Z,11.23
2023-03-19T22:38:48.857Z,9.48
2023-03-19T22:41:18.117Z,10.07
2023-03-19T22:43:45.553Z,10.23
2023-03-19T22:46:13.919Z,11.05
2023-03-19T22:48:42.167Z,12.85
2023-03-19T22:51:11.440Z,10.50
2023-03-19T22:53:38.158Z,11.27
2023-03-19T22:56:05.273Z,10.50
2023-03-19T22:58:41.996Z,12.45
2023-03-19T23:01:21.389Z,11.70
2023-03-19T23:03:49.122Z,10.32
2023-03-19T23:06:29.222Z,13.30
2023-03-19T23:08:57.461Z,11.75
2023-03-19T23:11:24.547Z,11.15
2023-03-19T23:13:51.652Z,12.82
2023-03-19T23:16:23.791Z,11.18
2023-03-19T23:18:50.841Z,11.05
2023-03-19T23:21:18.312Z,12.50
2023-03-19T23:23:45.432Z,11.52
2023-03-19T23:26:32.108Z,11.80
2023-03-19T23:29:03.657Z,18.10
2023-03-19T23:31:30.655Z,14.25
2023-03-19T23:33:57.581Z,9.05
2023-03-19T23:36:24.330Z,8.85
2023-03-19T23:38:51.839Z,10.07
2023-03-19T23:41:24.239Z,9.15
2023-03-19T23:43:52.026Z,8.70
2023-03-19T23:46:19.670Z,10.07
2023-03-19T23:48:46.596Z,9.35
2023-03-19T23:51:14.384Z,9.48
2023-03-19T23:53:41.457Z,9.60
2023-03-19T23:56:18.031Z,9.75
2023-03-19T23:58:44.805Z,8.82
